sensor_id;sensor_type;location;lat;lon;timestamp;pressure;altitude;pressure_sealevel;temperature;humidity
55456;BME280;63021;52.836;6.376;2023-02-07T00:00:44;104192.84;;;-0.18;77.88
55456;BME280;63021;52.836;6.376;2023-02-07T00:03:09;104210.31;;;-0.12;78.15
55456;BME280;63021;52.836;6.376;2023-02-07T00:05:35;104201.56;;;-0.19;77.85
55456;BME280;63021;52.836;6.376;2023-02-07T00:08:02;104212.03;;;-0.19;78.12
55456;BME280;63021;52.836;6.376;2023-02-07T00:10:28;104207.63;;;-0.26;77.78
55456;BME280;63021;52.836;6.376;2023-02-07T00:12:53;104206.75;;;-0.27;78.51
55456;BME280;63021;52.836;6.376;2023-02-07T00:15:18;104189.28;;;-0.39;78.44
55456;BME280;63021;52.836;6.376;2023-02-07T00:17:44;104198.84;;;-0.39;78.27
55456;BME280;63021;52.836;6.376;2023-02-07T00:20:10;104189.22;;;-0.46;78.62
55456;BME280;63021;52.836;6.376;2023-02-07T00:22:35;104204.97;;;-0.40;78.51
55456;BME280;63021;52.836;6.376;2023-02-07T00:25:01;104206.69;;;-0.44;78.35
55456;BME280;63021;52.836;6.376;2023-02-07T00:27:26;104205.81;;;-0.44;78.91
55456;BME280;63021;52.836;6.376;2023-02-07T00:29:51;104206.69;;;-0.45;78.40
55456;BME280;63021;52.836;6.376;2023-02-07T00:32:17;104203.16;;;-0.49;78.91
55456;BME280;63021;52.836;6.376;2023-02-07T00:34:45;104193.56;;;-0.51;78.64
55456;BME280;63021;52.836;6.376;2023-02-07T00:37:10;104202.28;;;-0.54;78.73
55456;BME280;63021;52.836;6.376;2023-02-07T00:39:35;104204.03;;;-0.51;78.39
55456;BME280;63021;52.836;6.376;2023-02-07T00:42:02;104202.28;;;-0.54;78.13
55456;BME280;63021;52.836;6.376;2023-02-07T00:44:28;104194.41;;;-0.59;78.41
55456;BME280;63021;52.836;6.376;2023-02-07T00:46:53;104199.66;;;-0.56;78.65
55456;BME280;63021;52.836;6.376;2023-02-07T00:49:19;104207.50;;;-0.56;78.55
55456;BME280;63021;52.836;6.376;2023-02-07T00:51:44;104194.41;;;-0.59;78.53
55456;BME280;63021;52.836;6.376;2023-02-07T00:54:10;104201.34;;;-0.59;78.49
55456;BME280;63021;52.836;6.376;2023-02-07T00:56:35;104200.50;;;-0.58;79.24
55456;BME280;63021;52.836;6.376;2023-02-07T00:59:01;104198.75;;;-0.59;78.91
55456;BME280;63021;52.836;6.376;2023-02-07T01:01:26;104196.13;;;-0.61;78.36
55456;BME280;63021;52.836;6.376;2023-02-07T01:03:53;104198.72;;;-0.62;79.27
55456;BME280;63021;52.836;6.376;2023-02-07T01:06:18;104194.34;;;-0.68;79.67
55456;BME280;63021;52.836;6.376;2023-02-07T01:08:44;104194.31;;;-0.71;79.22
55456;BME280;63021;52.836;6.376;2023-02-07T01:11:11;104201.31;;;-0.70;79.29
55456;BME280;63021;52.836;6.376;2023-02-07T01:13:38;104208.25;;;-0.74;79.18
55456;BME280;63021;52.836;6.376;2023-02-07T01:16:15;104206.50;;;-0.76;78.70
55456;BME280;63021;52.836;6.376;2023-02-07T01:18:41;104212.59;;;-0.80;79.50
55456;BME280;63021;52.836;6.376;2023-02-07T01:21:24;104209.09;;;-0.81;78.94
55456;BME280;63021;52.836;6.376;2023-02-07T01:23:50;104207.34;;;-0.82;78.84
55456;BME280;63021;52.836;6.376;2023-02-07T01:26:16;104205.59;;;-0.84;78.93
55456;BME280;63021;52.836;6.376;2023-02-07T01:28:41;104206.44;;;-0.89;78.96
55456;BME280;63021;52.836;6.376;2023-02-07T01:31:08;104214.28;;;-0.89;78.80
55456;BME280;63021;52.836;6.376;2023-02-07T01:33:36;104202.03;;;-0.91;79.90
55456;BME280;63021;52.836;6.376;2023-02-07T01:36:11;104206.41;;;-0.95;79.40
55456;BME280;63021;52.836;6.376;2023-02-07T01:38:36;104208.97;;;-0.98;79.23
55456;BME280;63021;52.836;6.376;2023-02-07T01:41:03;104217.69;;;-0.97;79.22
55456;BME280;63021;52.836;6.376;2023-02-07T01:43:29;104208.94;;;-1.04;79.02
55456;BME280;63021;52.836;6.376;2023-02-07T01:45:54;104226.38;;;-1.03;79.51
55456;BME280;63021;52.836;6.376;2023-02-07T01:48:23;104224.63;;;-1.01;78.92
55456;BME280;63021;52.836;6.376;2023-02-07T01:50:50;104223.75;;;-1.03;79.14
55456;BME280;63021;52.836;6.376;2023-02-07T01:53:20;104220.22;;;-1.08;79.10
55456;BME280;63021;52.836;6.376;2023-02-07T01:55:47;104216.75;;;-1.07;79.05
55456;BME280;63021;52.836;6.376;2023-02-07T01:58:14;104217.63;;;-1.05;79.27
55456;BME280;63021;52.836;6.376;2023-02-07T02:00:39;104201.00;;;-1.16;80.02
55456;BME280;63021;52.836;6.376;2023-02-07T02:03:05;104205.34;;;-1.17;79.29
55456;BME280;63021;52.836;6.376;2023-02-07T02:05:31;104217.56;;;-1.14;79.44
55456;BME280;63021;52.836;6.376;2023-02-07T02:07:57;104217.56;;;-1.14;79.51
55456;BME280;63021;52.836;6.376;2023-02-07T02:10:36;104222.81;;;-1.14;79.78
55456;BME280;63021;52.836;6.376;2023-02-07T02:15:33;104222.75;;;-1.19;79.33
55456;BME280;63021;52.836;6.376;2023-02-07T02:26:43;104215.72;;;-1.26;79.58
55456;BME280;63021;52.836;6.376;2023-02-07T02:29:30;104220.97;;;-1.23;80.27
55456;BME280;63021;52.836;6.376;2023-02-07T02:34:56;104200.91;;;-1.29;79.92
55456;BME280;63021;52.836;6.376;2023-02-07T02:40:06;104220.88;;;-1.34;80.39
55456;BME280;63021;52.836;6.376;2023-02-07T02:42:39;104217.41;;;-1.34;80.21
55456;BME280;63021;52.836;6.376;2023-02-07T02:45:30;104221.75;;;-1.35;79.34
55456;BME280;63021;52.836;6.376;2023-02-07T02:47:57;104224.31;;;-1.40;79.81
55456;BME280;63021;52.836;6.376;2023-02-07T02:50:28;104231.25;;;-1.43;79.97
55456;BME280;63021;52.836;6.376;2023-02-07T02:52:54;104226.88;;;-1.44;79.71
55456;BME280;63021;52.836;6.376;2023-02-07T02:55:49;104226.00;;;-1.48;79.78
55456;BME280;63021;52.836;6.376;2023-02-07T02:58:32;104229.44;;;-1.52;80.34
55456;BME280;63021;52.836;6.376;2023-02-07T03:15:07;104229.22;;;-1.72;79.97
55456;BME280;63021;52.836;6.376;2023-02-07T03:22:34;104231.75;;;-1.80;80.43
55456;BME280;63021;52.836;6.376;2023-02-07T03:25:00;104227.44;;;-1.78;80.95
55456;BME280;63021;52.836;6.376;2023-02-07T03:27:29;104217.81;;;-1.80;79.87
55456;BME280;63021;52.836;6.376;2023-02-07T03:29:58;104209.03;;;-1.85;80.72
55456;BME280;63021;52.836;6.376;2023-02-07T03:32:29;104204.72;;;-1.83;80.55
55456;BME280;63021;52.836;6.376;2023-02-07T03:34:57;104206.44;;;-1.85;79.94
55456;BME280;63021;52.836;6.376;2023-02-07T03:37:37;104205.53;;;-1.90;80.55
55456;BME280;63021;52.836;6.376;2023-02-07T03:40:04;104207.28;;;-1.91;80.14
55456;BME280;63021;52.836;6.376;2023-02-07T03:42:52;104209.88;;;-1.91;80.19
55456;BME280;63021;52.836;6.376;2023-02-07T03:45:20;104207.22;;;-1.93;80.38
55456;BME280;63021;52.836;6.376;2023-02-07T03:47:46;104212.41;;;-1.96;80.19
55456;BME280;63021;52.836;6.376;2023-02-07T03:50:15;104221.16;;;-1.95;80.22
55456;BME280;63021;52.836;6.376;2023-02-07T03:52:41;104217.59;;;-1.99;80.35
55456;BME280;63021;52.836;6.376;2023-02-07T03:55:06;104223.66;;;-2.01;79.84
55456;BME280;63021;52.836;6.376;2023-02-07T03:57:32;104212.34;;;-2.02;80.51
55456;BME280;63021;52.836;6.376;2023-02-07T03:59:57;104203.56;;;-2.10;80.33
55456;BME280;63021;52.836;6.376;2023-02-07T04:02:23;104211.41;;;-2.07;80.80
55456;BME280;63021;52.836;6.376;2023-02-07T04:04:48;104201.75;;;-2.14;80.43
55456;BME280;63021;52.836;6.376;2023-02-07T04:07:14;104213.03;;;-2.18;79.95
55456;BME280;63021;52.836;6.376;2023-02-07T04:09:39;104217.41;;;-2.16;80.08
55456;BME280;63021;52.836;6.376;2023-02-07T04:12:05;104220.91;;;-2.15;79.91
55456;BME280;63021;52.836;6.376;2023-02-07T04:14:31;104221.75;;;-2.18;80.99
55456;BME280;63021;52.836;6.376;2023-02-07T04:16:56;104210.34;;;-2.23;80.65
55456;BME280;63021;52.836;6.376;2023-02-07T04:19:21;104205.94;;;-2.27;80.24
55456;BME280;63021;52.836;6.376;2023-02-07T04:21:47;104192.84;;;-2.32;79.90
55456;BME280;63021;52.836;6.376;2023-02-07T04:24:13;104206.78;;;-2.33;80.36
55456;BME280;63021;52.836;6.376;2023-02-07T04:26:38;104211.94;;;-2.36;80.45
55456;BME280;63021;52.836;6.376;2023-02-07T04:29:04;104213.69;;;-2.35;80.49
55456;BME280;63021;52.836;6.376;2023-02-07T04:31:30;104188.28;;;-2.51;80.26
55456;BME280;63021;52.836;6.376;2023-02-07T04:33:55;104212.66;;;-2.46;80.39
55456;BME280;63021;52.836;6.376;2023-02-07T04:36:21;104220.50;;;-2.46;79.92
55456;BME280;63021;52.836;6.376;2023-02-07T04:38:47;104217.84;;;-2.49;80.32
55456;BME280;63021;52.836;6.376;2023-02-07T04:41:12;104229.13;;;-2.50;80.16
55456;BME280;63021;52.836;6.376;2023-02-07T04:43:38;104227.41;;;-2.51;80.54
55456;BME280;63021;52.836;6.376;2023-02-07T04:46:05;104223.00;;;-2.54;79.79
55456;BME280;63021;52.836;6.376;2023-02-07T04:48:31;104228.22;;;-2.54;80.80
55456;BME280;63021;52.836;6.376;2023-02-07T04:50:57;104232.53;;;-2.56;79.90
55456;BME280;63021;52.836;6.376;2023-02-07T04:53:23;104225.50;;;-2.62;80.15
55456;BME280;63021;52.836;6.376;2023-02-07T04:55:50;104227.25;;;-2.61;80.48
55456;BME280;63021;52.836;6.376;2023-02-07T04:58:16;104234.28;;;-2.56;79.75
55456;BME280;63021;52.836;6.376;2023-02-07T05:00:42;104238.63;;;-2.57;80.67
55456;BME280;63021;52.836;6.376;2023-02-07T05:03:08;104243.84;;;-2.57;79.57
55456;BME280;63021;52.836;6.376;2023-02-07T05:05:37;104232.47;;;-2.61;80.34
55456;BME280;63021;52.836;6.376;2023-02-07T05:08:02;104237.69;;;-2.61;80.32
55456;BME280;63021;52.836;6.376;2023-02-07T05:10:28;104222.84;;;-2.65;80.25
55456;BME280;63021;52.836;6.376;2023-02-07T05:12:53;104238.50;;;-2.63;79.99
55456;BME280;63021;52.836;6.376;2023-02-07T05:15:18;104204.31;;;-2.83;79.69
55456;BME280;63021;52.836;6.376;2023-02-07T05:17:44;104218.44;;;-2.67;80.34
55456;BME280;63021;52.836;6.376;2023-02-07T05:20:09;104221.91;;;-2.70;79.70
55456;BME280;63021;52.836;6.376;2023-02-07T05:22:35;104220.97;;;-2.75;80.15
55456;BME280;63021;52.836;6.376;2023-02-07T05:25:00;104214.00;;;-2.74;80.83
55456;BME280;63021;52.836;6.376;2023-02-07T05:27:26;104213.06;;;-2.81;80.53
55456;BME280;63021;52.836;6.376;2023-02-07T05:29:51;104222.63;;;-2.80;80.03
55456;BME280;63021;52.836;6.376;2023-02-07T05:32:16;104218.25;;;-2.83;80.59
55456;BME280;63021;52.836;6.376;2023-02-07T05:35:00;104211.22;;;-2.87;80.00
55456;BME280;63021;52.836;6.376;2023-02-07T05:37:26;104222.47;;;-2.91;80.84
55456;BME280;63021;52.836;6.376;2023-02-07T05:39:51;104222.41;;;-2.94;80.17
55456;BME280;63021;52.836;6.376;2023-02-07T05:42:17;104222.34;;;-2.99;80.24
55456;BME280;63021;52.836;6.376;2023-02-07T05:44:43;104217.06;;;-3.02;80.59
55456;BME280;63021;52.836;6.376;2023-02-07T05:47:09;104220.50;;;-3.06;79.69
55456;BME280;63021;52.836;6.376;2023-02-07T05:49:34;104217.81;;;-3.09;80.06
55456;BME280;63021;52.836;6.376;2023-02-07T05:51:59;104198.56;;;-3.19;79.87
55456;BME280;63021;52.836;6.376;2023-02-07T05:54:25;104211.69;;;-3.14;79.94
55456;BME280;63021;52.836;6.376;2023-02-07T05:56:50;104205.50;;;-3.19;80.17
55456;BME280;63021;52.836;6.376;2023-02-07T05:59:16;104215.97;;;-3.16;80.26
55456;BME280;63021;52.836;6.376;2023-02-07T06:01:41;104211.66;;;-3.16;79.96
55456;BME280;63021;52.836;6.376;2023-02-07T06:04:07;104211.66;;;-3.16;80.37
55456;BME280;63021;52.836;6.376;2023-02-07T06:06:32;104216.88;;;-3.16;80.45
55456;BME280;63021;52.836;6.376;2023-02-07T06:08:57;104211.66;;;-3.16;80.34
55456;BME280;63021;52.836;6.376;2023-02-07T06:11:23;104210.75;;;-3.16;79.57
55456;BME280;63021;52.836;6.376;2023-02-07T06:13:48;104217.69;;;-3.18;80.04
55456;BME280;63021;52.836;6.376;2023-02-07T06:16:14;104219.41;;;-3.20;80.04
55456;BME280;63021;52.836;6.376;2023-02-07T06:18:39;104225.47;;;-3.20;79.90
55456;BME280;63021;52.836;6.376;2023-02-07T06:21:05;104213.28;;;-3.22;80.27
55456;BME280;63021;52.836;6.376;2023-02-07T06:23:30;104216.69;;;-3.25;80.02
55456;BME280;63021;52.836;6.376;2023-02-07T06:25:55;104227.13;;;-3.25;79.89
55456;BME280;63021;52.836;6.376;2023-02-07T06:28:21;104223.63;;;-3.27;80.23
55456;BME280;63021;52.836;6.376;2023-02-07T06:30:46;104223.63;;;-3.27;80.18
55456;BME280;63021;52.836;6.376;2023-02-07T06:33:12;104219.22;;;-3.31;79.92
55456;BME280;63021;52.836;6.376;2023-02-07T06:35:40;104223.59;;;-3.28;80.04
55456;BME280;63021;52.836;6.376;2023-02-07T06:38:12;104219.22;;;-3.29;80.16
55456;BME280;63021;52.836;6.376;2023-02-07T06:40:41;104220.09;;;-3.29;79.78
55456;BME280;63021;52.836;6.376;2023-02-07T06:43:06;104222.66;;;-3.32;79.83
55456;BME280;63021;52.836;6.376;2023-02-07T06:45:32;104214.84;;;-3.32;79.85
55456;BME280;63021;52.836;6.376;2023-02-07T06:47:57;104210.41;;;-3.36;79.56
55456;BME280;63021;52.836;6.376;2023-02-07T06:50:23;104218.34;;;-3.32;79.65
55456;BME280;63021;52.836;6.376;2023-02-07T06:52:48;104214.03;;;-3.29;79.81
55456;BME280;63021;52.836;6.376;2023-02-07T06:55:14;104214.88;;;-3.29;80.25
55456;BME280;63021;52.836;6.376;2023-02-07T06:57:39;104224.47;;;-3.28;79.91
55456;BME280;63021;52.836;6.376;2023-02-07T07:00:05;104220.19;;;-3.26;80.22
55456;BME280;63021;52.836;6.376;2023-02-07T07:02:30;104206.25;;;-3.26;79.81
55456;BME280;63021;52.836;6.376;2023-02-07T07:04:56;104208.00;;;-3.27;80.12
55456;BME280;63021;52.836;6.376;2023-02-07T07:07:21;104215.00;;;-3.23;79.67
55456;BME280;63021;52.836;6.376;2023-02-07T07:09:47;104221.97;;;-3.22;79.88
55456;BME280;63021;52.836;6.376;2023-02-07T07:12:12;104221.13;;;-3.19;79.39
55456;BME280;63021;52.836;6.376;2023-02-07T07:14:38;104226.38;;;-3.18;79.71
55456;BME280;63021;52.836;6.376;2023-02-07T07:17:03;104211.66;;;-3.16;80.21
55456;BME280;63021;52.836;6.376;2023-02-07T07:19:29;104212.59;;;-3.10;79.46
55456;BME280;63021;52.836;6.376;2023-02-07T07:21:54;104208.28;;;-3.08;79.54
55456;BME280;63021;52.836;6.376;2023-02-07T07:24:20;104213.63;;;-2.99;80.11
55456;BME280;63021;52.836;6.376;2023-02-07T07:26:46;104205.00;;;-2.95;79.25
55456;BME280;63021;52.836;6.376;2023-02-07T07:29:11;104208.59;;;-2.88;79.72
55456;BME280;63021;52.836;6.376;2023-02-07T07:31:37;104207.81;;;-2.84;79.20
55456;BME280;63021;52.836;6.376;2023-02-07T07:34:02;104200.91;;;-2.79;79.40
55456;BME280;63021;52.836;6.376;2023-02-07T07:36:28;104202.72;;;-2.73;79.26
55456;BME280;63021;52.836;6.376;2023-02-07T07:38:53;104204.53;;;-2.69;79.76
55456;BME280;63021;52.836;6.376;2023-02-07T07:41:18;104205.47;;;-2.66;79.85
55456;BME280;63021;52.836;6.376;2023-02-07T07:43:44;104197.66;;;-2.64;79.92
55456;BME280;63021;52.836;6.376;2023-02-07T07:46:09;104195.13;;;-2.58;79.33
55456;BME280;63021;52.836;6.376;2023-02-07T07:48:35;104207.44;;;-2.48;79.57
55456;BME280;63021;52.836;6.376;2023-02-07T07:51:00;104217.06;;;-2.42;79.46
55456;BME280;63021;52.836;6.376;2023-02-07T07:53:26;104204.09;;;-2.37;79.70
55456;BME280;63021;52.836;6.376;2023-02-07T07:55:54;104200.63;;;-2.36;79.58
55456;BME280;63021;52.836;6.376;2023-02-07T07:58:21;104209.44;;;-2.28;79.81
55456;BME280;63021;52.836;6.376;2023-02-07T08:00:47;104222.56;;;-2.22;78.93
55456;BME280;63021;52.836;6.376;2023-02-07T08:03:14;104212.13;;;-2.20;79.39
55456;BME280;63021;52.836;6.376;2023-02-07T08:05:40;104204.34;;;-2.16;79.46
55456;BME280;63021;52.836;6.376;2023-02-07T08:08:06;104212.31;;;-2.06;79.40
55456;BME280;63021;52.836;6.376;2023-02-07T08:10:31;104220.19;;;-2.00;79.82
55456;BME280;63021;52.836;6.376;2023-02-07T08:12:57;104210.69;;;-1.97;79.42
55456;BME280;63021;52.836;6.376;2023-02-07T08:15:24;104209.94;;;-1.85;80.03
55456;BME280;63021;52.836;6.376;2023-02-07T08:17:49;104212.72;;;-1.71;79.49
55456;BME280;63021;52.836;6.376;2023-02-07T08:20:15;104213.63;;;-1.63;80.02
55456;BME280;63021;52.836;6.376;2023-02-07T08:22:40;104218.16;;;-1.48;79.38
55456;BME280;63021;52.836;6.376;2023-02-07T08:25:06;104212.16;;;-1.37;79.23
55456;BME280;63021;52.836;6.376;2023-02-07T08:27:32;104205.28;;;-1.28;78.91
55456;BME280;63021;52.836;6.376;2023-02-07T08:29:57;104200.13;;;-1.14;79.12
55456;BME280;63021;52.836;6.376;2023-02-07T08:32:22;104192.41;;;-0.97;79.48
55456;BME280;63021;52.836;6.376;2023-02-07T08:34:48;104214.34;;;-0.76;78.92
55456;BME280;63021;52.836;6.376;2023-02-07T08:37:14;104209.19;;;-0.62;78.93
55456;BME280;63021;52.836;6.376;2023-02-07T08:39:39;104212.75;;;-0.48;78.59
55456;BME280;63021;52.836;6.376;2023-02-07T08:42:06;104202.38;;;-0.37;78.90
55456;BME280;63021;52.836;6.376;2023-02-07T08:44:34;104209.41;;;-0.21;78.43
55456;BME280;63021;52.836;6.376;2023-02-07T08:47:00;104202.47;;;-0.11;77.91
55456;BME280;63021;52.836;6.376;2023-02-07T08:49:26;104212.09;;;-0.01;77.91
55456;BME280;63021;52.836;6.376;2023-02-07T08:51:51;104217.38;;;0.09;78.69
55456;BME280;63021;52.836;6.376;2023-02-07T08:54:17;104213.00;;;0.14;78.10
55456;BME280;63021;52.836;6.376;2023-02-07T08:56:43;104220.88;;;0.20;78.74
55456;BME280;63021;52.836;6.376;2023-02-07T08:59:08;104226.16;;;0.26;78.12
55456;BME280;63021;52.836;6.376;2023-02-07T09:01:34;104213.91;;;0.27;78.29
55456;BME280;63021;52.836;6.376;2023-02-07T09:03:59;104235.78;;;0.37;78.81
55456;BME280;63021;52.836;6.376;2023-02-07T09:06:25;104235.78;;;0.40;78.70
55456;BME280;63021;52.836;6.376;2023-02-07T09:08:51;104234.91;;;0.45;78.41
55456;BME280;63021;52.836;6.376;2023-02-07T09:11:17;104233.19;;;0.50;78.80
55456;BME280;63021;52.836;6.376;2023-02-07T09:13:43;104237.56;;;0.58;78.29
55456;BME280;63021;52.836;6.376;2023-02-07T09:16:10;104233.19;;;0.66;78.08
55456;BME280;63021;52.836;6.376;2023-02-07T09:18:36;104215.72;;;0.71;78.09
55456;BME280;63021;52.836;6.376;2023-02-07T09:21:02;104234.09;;;0.88;77.73
55456;BME280;63021;52.836;6.376;2023-02-07T09:23:28;104224.47;;;1.01;78.07
55456;BME280;63021;52.836;6.376;2023-02-07T09:25:59;104225.31;;;1.09;77.41
55456;BME280;63021;52.836;6.376;2023-02-07T09:28:25;104217.44;;;1.20;76.79
55456;BME280;63021;52.836;6.376;2023-02-07T09:30:51;104220.03;;;1.28;77.56
55456;BME280;63021;52.836;6.376;2023-02-07T09:33:16;104222.66;;;1.34;76.43
55456;BME280;63021;52.836;6.376;2023-02-07T09:35:44;104215.63;;;1.39;77.04
55456;BME280;63021;52.836;6.376;2023-02-07T09:38:18;104215.63;;;1.42;76.99
55456;BME280;63021;52.836;6.376;2023-02-07T09:40:45;104211.25;;;1.46;76.02
55456;BME280;63021;52.836;6.376;2023-02-07T09:43:30;104225.22;;;1.49;76.11
55456;BME280;63021;52.836;6.376;2023-02-07T09:46:00;104211.22;;;1.49;76.38
55456;BME280;63021;52.836;6.376;2023-02-07T09:48:49;104212.13;;;1.51;76.02
55456;BME280;63021;52.836;6.376;2023-02-07T09:51:18;104214.75;;;1.52;76.37
55456;BME280;63021;52.836;6.376;2023-02-07T09:56:14;104216.44;;;1.63;76.62
55456;BME280;63021;52.836;6.376;2023-02-07T09:59:00;104220.81;;;1.64;76.31
55456;BME280;63021;52.836;6.376;2023-02-07T10:01:32;104220.81;;;1.64;76.49
55456;BME280;63021;52.836;6.376;2023-02-07T10:06:49;104223.44;;;1.59;75.86
55456;BME280;63021;52.836;6.376;2023-02-07T10:09:21;104224.31;;;1.66;76.24
55456;BME280;63021;52.836;6.376;2023-02-07T10:11:59;104218.19;;;1.67;76.52
55456;BME280;63021;52.836;6.376;2023-02-07T10:15:10;104221.66;;;1.69;75.91
55456;BME280;63021;52.836;6.376;2023-02-07T10:26:37;104225.16;;;1.69;76.14
55456;BME280;63021;52.836;6.376;2023-02-07T10:32:24;104229.53;;;1.72;76.22
55456;BME280;63021;52.836;6.376;2023-02-07T10:34:56;104226.88;;;1.75;75.38
55456;BME280;63021;52.836;6.376;2023-02-07T10:37:30;104220.78;;;1.75;75.37
55456;BME280;63021;52.836;6.376;2023-02-07T10:40:22;104235.66;;;1.79;76.22
55456;BME280;63021;52.836;6.376;2023-02-07T10:42:57;104247.03;;;1.78;75.73
55456;BME280;63021;52.836;6.376;2023-02-07T10:45:24;104232.16;;;1.78;75.76
55456;BME280;63021;52.836;6.376;2023-02-07T10:47:49;104233.88;;;1.81;75.78
55456;BME280;63021;52.836;6.376;2023-02-07T10:50:18;104239.13;;;1.87;75.45
55456;BME280;63021;52.836;6.376;2023-02-07T10:52:55;104243.47;;;1.91;76.25
55456;BME280;63021;52.836;6.376;2023-02-07T10:55:41;104246.97;;;1.95;75.49
55456;BME280;63021;52.836;6.376;2023-02-07T10:58:16;104240.84;;;1.97;75.38
55456;BME280;63021;52.836;6.376;2023-02-07T11:00:48;104245.19;;;1.98;75.74
55456;BME280;63021;52.836;6.376;2023-02-07T11:03:19;104239.06;;;1.98;75.63
55456;BME280;63021;52.836;6.376;2023-02-07T11:05:56;104234.69;;;1.97;75.89
55456;BME280;63021;52.836;6.376;2023-02-07T11:08:27;104235.53;;;2.03;75.72
55456;BME280;63021;52.836;6.376;2023-02-07T11:10:58;104232.06;;;2.01;75.16
55456;BME280;63021;52.836;6.376;2023-02-07T11:13:26;104243.38;;;2.08;75.65
55456;BME280;63021;52.836;6.376;2023-02-07T11:16:06;104235.50;;;2.13;75.94
55456;BME280;63021;52.836;6.376;2023-02-07T11:19:05;104223.25;;;2.10;74.73
55456;BME280;63021;52.836;6.376;2023-02-07T11:21:40;104230.22;;;2.16;74.47
55456;BME280;63021;52.836;6.376;2023-02-07T11:24:19;104229.31;;;2.18;74.68
55456;BME280;63021;52.836;6.376;2023-02-07T11:26:53;104235.44;;;2.20;75.17
55456;BME280;63021;52.836;6.376;2023-02-07T11:29:21;104231.03;;;2.22;74.47
55456;BME280;63021;52.836;6.376;2023-02-07T11:31:48;104228.38;;;2.25;75.10
55456;BME280;63021;52.836;6.376;2023-02-07T11:34:57;104233.63;;;2.35;74.90
55456;BME280;63021;52.836;6.376;2023-02-07T11:37:28;104218.72;;;2.34;74.66
55456;BME280;63021;52.836;6.376;2023-02-07T11:40:14;104214.31;;;2.37;74.33
55456;BME280;63021;52.836;6.376;2023-02-07T11:42:41;104221.25;;;2.48;74.71
55456;BME280;63021;52.836;6.376;2023-02-07T11:45:15;104219.44;;;2.53;74.34
55456;BME280;63021;52.836;6.376;2023-02-07T11:47:44;104208.00;;;2.58;73.92
55456;BME280;63021;52.836;6.376;2023-02-07T11:50:34;104206.22;;;2.65;73.98
55456;BME280;63021;52.836;6.376;2023-02-07T11:53:01;104200.03;;;2.69;74.42
55456;BME280;63021;52.836;6.376;2023-02-07T11:55:34;104199.13;;;2.75;73.73
55456;BME280;63021;52.836;6.376;2023-02-07T11:58:16;104206.09;;;2.79;73.69
55456;BME280;63021;52.836;6.376;2023-02-07T12:00:43;104204.28;;;2.84;74.37
55456;BME280;63021;52.836;6.376;2023-02-07T12:03:21;104213.88;;;2.91;74.14
55456;BME280;63021;52.836;6.376;2023-02-07T12:05:53;104208.56;;;2.99;73.76
55456;BME280;63021;52.836;6.376;2023-02-07T12:08:24;104204.09;;;3.04;73.50
55456;BME280;63021;52.836;6.376;2023-02-07T12:10:55;104198.81;;;3.09;73.56
55456;BME280;63021;52.836;6.376;2023-02-07T12:13:23;104210.06;;;3.22;73.35
55456;BME280;63021;52.836;6.376;2023-02-07T12:15:58;104217.06;;;3.29;73.15
55456;BME280;63021;52.836;6.376;2023-02-07T12:18:35;104206.41;;;3.37;73.24
55456;BME280;63021;52.836;6.376;2023-02-07T12:24:05;104188.72;;;3.50;72.98
55456;BME280;63021;52.836;6.376;2023-02-07T12:26:42;104186.91;;;3.53;73.22
55456;BME280;63021;52.836;6.376;2023-02-07T12:37:24;104177.84;;;3.76;71.75
55456;BME280;63021;52.836;6.376;2023-02-07T12:39:55;104171.63;;;3.80;72.32
55456;BME280;63021;52.836;6.376;2023-02-07T12:44:56;104168.97;;;3.81;71.92
55456;BME280;63021;52.836;6.376;2023-02-07T12:53:13;104167.00;;;3.97;71.44
55456;BME280;63021;52.836;6.376;2023-02-07T13:09:34;104157.22;;;4.06;70.48
55456;BME280;63021;52.836;6.376;2023-02-07T13:12:20;104158.94;;;4.08;70.08
55456;BME280;63021;52.836;6.376;2023-02-07T13:23:21;104165.13;;;4.06;70.20
55456;BME280;63021;52.836;6.376;2023-02-07T13:25:54;104158.13;;;4.03;68.87
55456;BME280;63021;52.836;6.376;2023-02-07T13:31:10;104165.16;;;4.04;68.73
55456;BME280;63021;52.836;6.376;2023-02-07T13:33:39;104153.72;;;4.04;69.09
55456;BME280;63021;52.836;6.376;2023-02-07T13:41:58;104147.53;;;4.06;68.20
55456;BME280;63021;52.836;6.376;2023-02-07T13:52:42;104146.63;;;4.09;68.27
55456;BME280;63021;52.836;6.376;2023-02-07T14:01:17;104142.25;;;4.08;68.73
55456;BME280;63021;52.836;6.376;2023-02-07T14:06:44;104144.88;;;4.08;68.15
55456;BME280;63021;52.836;6.376;2023-02-07T14:12:06;104139.59;;;4.08;68.94
55456;BME280;63021;52.836;6.376;2023-02-07T14:14:38;104140.50;;;4.08;69.25
55456;BME280;63021;52.836;6.376;2023-02-07T14:17:07;104141.31;;;4.10;68.38
55456;BME280;63021;52.836;6.376;2023-02-07T14:22:25;104132.56;;;4.10;68.48
55456;BME280;63021;52.836;6.376;2023-02-07T14:27:42;104132.63;;;4.07;67.87
55456;BME280;63021;52.836;6.376;2023-02-07T14:30:11;104137.91;;;4.05;67.72
55456;BME280;63021;52.836;6.376;2023-02-07T14:32:39;104133.56;;;4.01;67.71
55456;BME280;63021;52.836;6.376;2023-02-07T14:37:51;104123.09;;;3.95;68.74
55456;BME280;63021;52.836;6.376;2023-02-07T14:40:27;104117.03;;;3.91;68.63
55456;BME280;63021;52.836;6.376;2023-02-07T14:43:15;104123.13;;;3.93;68.90
55456;BME280;63021;52.836;6.376;2023-02-07T14:48:52;104117.03;;;3.91;69.01
55456;BME280;63021;52.836;6.376;2023-02-07T14:54:02;104117.94;;;3.89;68.86
55456;BME280;63021;52.836;6.376;2023-02-07T14:59:05;104114.50;;;3.84;69.09
55456;BME280;63021;52.836;6.376;2023-02-07T15:01:32;104125.97;;;3.79;69.30
55456;BME280;63021;52.836;6.376;2023-02-07T15:04:00;104129.53;;;3.77;69.27
55456;BME280;63021;52.836;6.376;2023-02-07T15:06:26;104112.88;;;3.73;68.77
55456;BME280;63021;52.836;6.376;2023-02-07T15:08:58;104115.56;;;3.70;69.35
55456;BME280;63021;52.836;6.376;2023-02-07T15:11:25;104120.84;;;3.69;69.69
55456;BME280;63021;52.836;6.376;2023-02-07T15:13:58;104117.38;;;3.67;69.02
55456;BME280;63021;52.836;6.376;2023-02-07T15:16:28;104124.41;;;3.64;68.93
55456;BME280;63021;52.836;6.376;2023-02-07T15:19:02;104112.16;;;3.63;69.70
55456;BME280;63021;52.836;6.376;2023-02-07T15:21:42;104097.25;;;3.61;69.00